x

Prince Edward Pt (45135) Wave Buoy

2:00pm - Tue 26th Sep 2017 All times are CDT. -5 hours from GMT.

  • Sig Wave height 0.3ft
  • Peak Period 2s
  • Wind
    2mph, 4mph gusts
  • Sea Temp 74°f
  • Air Temp 73°f
  • Sea Pressure 1014.7mb
  • Prince Edward Pt
  • Prince Edward Pt

More Historic Weather Station data

Upgrade to MSW Pro to gain access to the past 30 days of data for over 8000 Wavebouys and Weather Stations around the globe.

Join

Comparision Forecast

View Surf forecast
   
Tue 09/26 2:00pm 0.3ft 2s 2 4 mph 1014.7mb 74f 73f
1:00pm 0.3ft 3s 2 2 mph 1015.1mb 73f 73f
12:00pm 0.7ft 3s 4 4 mph 1015.7mb 73f 73f
11:00am 0.7ft 3s 7 9 mph 1015.8mb 72f 72f
10:00am 0.3ft 2s 9 9 mph 1016mb 72f 71f
9:00am 0.3ft 2s 9 9 mph 1016.4mb 72f 71f
8:00am 0.3ft 5s 9 9 mph 1016.3mb 72f 71f
7:00am  -  15s 7 9 mph 1016mb 72f 72f
6:00am 0.3ft 5s 9 9 mph 1015.8mb 72f 72f
5:00am  -  5s 4 4 mph 1015.8mb 72f 72f
4:00am  -  5s 4 4 mph 1015.8mb 72f 72f
3:00am 0.3ft 5s 4 7 mph 1016mb 72f 73f
2:00am 0.3ft 4s 4 4 mph 1016mb 72f 73f
1:00am  -  4s 4 4 mph 1016mb 72f 73f
12:00am  -  5s 4 7 mph 1015.7mb 73f 74f
Mon 09/25 11:00pm 0.3ft 5s 4 7 mph 1015.8mb 73f 73f
10:00pm  -  4s 4 4 mph 1015.9mb 73f 73f
9:00pm 0.3ft 4s 4 4 mph 1016.1mb 73f 73f
8:00pm 0.3ft 4s 4 4 mph 1016.3mb 73f 74f
7:00pm 0.3ft 4s 4 4 mph 1016.5mb 74f 74f
6:00pm  -  2s 4 4 mph 1016.6mb 74f 74f
5:00pm  -  2s 2 4 mph 1016.8mb 75f 76f
4:00pm 0.3ft 2s  -  0 mph 1017.1mb 76f 78f
3:00pm 0.3ft 2s 2 2 mph 1017.4mb 76f 75f
2:00pm 0.3ft 4s 2 2 mph 1017.8mb 75f 74f
1:00pm 0.3ft 2s 2 4 mph 1018.3mb 73f 73f
12:00pm 0.3ft 2s 4 4 mph 1019mb 73f 72f
11:00am 0.3ft 2s 7 9 mph 1019.1mb 72f 71f
10:00am 0.3ft 2s 9 9 mph 1019.3mb 72f 71f
9:00am 0.3ft 3s 9 9 mph 1019.4mb 71f 71f
8:00am  -  2s 4 4 mph 1019.3mb 71f 72f
7:00am 0.3ft 4s 2 2 mph 1019mb 71f 72f
6:00am 0.3ft 2s  -  2 mph 1018.8mb 71f 71f
5:00am 0.3ft 4s 4 4 mph 1018.2mb 71f 71f
4:00am 0.3ft 4s 4 4 mph 1018mb 71f 71f
3:00am 0.3ft 3s 2 4 mph 1018mb 71f 72f
2:00am 0.3ft 3s 4 4 mph 1018.2mb 71f 72f
1:00am 0.3ft 3s 7 7 mph 1018.4mb 71f 72f
12:00am 0.3ft 3s 7 7 mph 1018.3mb 71f 73f
Sun 09/24 11:00pm 0.3ft 3s 7 7 mph 1018.3mb 71f 73f
10:00pm 0.7ft 3s 7 9 mph 1018.6mb 71f 73f
9:00pm 0.3ft 3s 7 7 mph 1018.6mb 71f 72f
8:00pm 0.3ft 3s 4 7 mph 1018.5mb 72f 72f
7:00pm 0.3ft 3s 7 7 mph 1018.2mb 72f 73f
6:00pm 0.7ft 3s 4 7 mph 1018mb 72f 73f
5:00pm 0.7ft 3s 4 7 mph 1018.1mb 72f 73f
4:00pm 0.7ft 3s 9 9 mph 1018mb 72f 73f
3:00pm 0.7ft 2s 9 9 mph 1018.5mb 72f 73f
2:00pm 0.7ft 2s 9 11 mph 1019mb 72f 72f
1:00pm 0.7ft 2s 11 13 mph 1019.3mb 71f 72f
12:00pm 0.3ft 2s 9 11 mph 1019.7mb 71f 72f
11:00am 0.3ft 2s 9 11 mph 1020.1mb 71f 72f
10:00am 0.3ft 2s 7 9 mph 1020.6mb 71f 71f
9:00am 0.3ft 2s 7 9 mph 1020.7mb 71f 71f
8:00am 0.3ft 2s 9 9 mph 1020.5mb 70f 71f
7:00am 0.3ft 2s 9 9 mph 1020.1mb 70f 71f
6:00am 0.7ft 2s 9 9 mph 1019.9mb 70f 71f
5:00am 0.7ft 2s 9 9 mph 1019.6mb 70f 71f
4:00am 0.7ft 3s 9 9 mph 1019.3mb 70f 71f
3:00am 0.7ft 3s 4 7 mph 1019.3mb 70f 71f
2:00am 0.7ft 4s 4 4 mph 1019.1mb 70f 72f
1:00am 0.7ft 3s 4 4 mph 1018.8mb 70f 72f
12:00am 0.7ft 4s 4 9 mph 1018.6mb 70f 72f
Sat 09/23 11:00pm 0.7ft 3s 4 7 mph 1018.2mb 70f 72f
10:00pm 0.7ft 3s 4 7 mph 1018.2mb 70f 72f
9:00pm 0.7ft 3s 9 9 mph 1017.8mb 71f 73f
8:00pm 0.7ft 3s 9 9 mph 1017.6mb 71f 72f
7:00pm 0.7ft 3s 9 11 mph 1017.6mb 71f 72f
6:00pm 0.7ft 3s 7 9 mph 1017.4mb 71f 72f
5:00pm 0.7ft 3s 4 4 mph 1017.6mb 71f 72f
4:00pm 1ft 3s 7 7 mph 1017.9mb 71f 72f
3:00pm 1ft 3s 9 9 mph 1018.1mb 71f 72f
2:00pm 1ft 3s 9 11 mph 1018.7mb 71f 71f
1:00pm 1ft 3s 11 13 mph 1019.3mb 71f 71f
12:00pm 1ft 3s 11 13 mph 1019.6mb 71f 70f
11:00am 1ft 3s 13 13 mph 1019.7mb 70f 70f
10:00am 0.7ft 3s 11 11 mph 1019.8mb 70f 70f
9:00am 0.3ft 2s 9 11 mph 1020.1mb 70f 70f
8:00am 0.3ft 2s 9 9 mph 1020.1mb 70f 70f
7:00am 0.3ft 2s 7 9 mph 1019.7mb 70f 70f
6:00am 0.3ft 5s 9 9 mph 1019.2mb 70f 70f
5:00am 0.3ft 2s 9 11 mph 1018.7mb 70f 70f
4:00am 0.3ft 2s 4 7 mph 1017.7mb 70f 70f
3:00am 0.3ft 2s 7 7 mph 1017.9mb 70f 70f
2:00am 0.3ft 4s 4 4 mph 1018mb 70f 69f
1:00am 0.3ft 2s 2 4 mph 1017.8mb 70f 69f
12:00am 0.3ft 4s 2 2 mph 1018.2mb 70f 70f
Fri 09/22 11:00pm 0.3ft 2s 7 9 mph 1018.8mb 70f 70f
10:00pm 0.3ft 2s 11 13 mph 1018.9mb 70f 71f
9:00pm 0.7ft 2s 9 9 mph 1018.6mb 70f 70f